sensor_id;sensor_type;location;lat;lon;timestamp;pressure;altitude;pressure_sealevel;temperature;humidity
76753;BME280;65687;51.308;16.916;2023-02-01T00:01:07;99100.44;;;1.93;85.27
76753;BME280;65687;51.308;16.916;2023-02-01T00:06:09;99093.93;;;1.87;84.82
76753;BME280;65687;51.308;16.916;2023-02-01T00:11:11;99100.74;;;1.83;84.84
76753;BME280;65687;51.308;16.916;2023-02-01T00:16:16;99096.98;;;1.77;84.78
76753;BME280;65687;51.308;16.916;2023-02-01T00:21:20;99107.61;;;1.74;84.72
76753;BME280;65687;51.308;16.916;2023-02-01T00:26:36;99110.12;;;1.76;84.77
76753;BME280;65687;51.308;16.916;2023-02-01T00:31:38;99117.50;;;1.81;84.73
76753;BME280;65687;51.308;16.916;2023-02-01T00:36:40;99120.73;;;1.80;84.85
76753;BME280;65687;51.308;16.916;2023-02-01T00:41:42;99119.50;;;1.85;84.94
76753;BME280;65687;51.308;16.916;2023-02-01T00:46:43;99122.45;;;1.91;85.11
76753;BME280;65687;51.308;16.916;2023-02-01T00:51:45;99118.73;;;1.97;85.22
76753;BME280;65687;51.308;16.916;2023-02-01T00:56:46;99127.85;;;2.01;85.00
76753;BME280;65687;51.308;16.916;2023-02-01T01:01:48;99125.73;;;2.05;84.92
76753;BME280;65687;51.308;16.916;2023-02-01T01:06:49;99135.13;;;2.09;84.82
76753;BME280;65687;51.308;16.916;2023-02-01T01:11:51;99128.78;;;2.11;85.03
76753;BME280;65687;51.308;16.916;2023-02-01T01:16:53;99126.52;;;2.08;85.06
76753;BME280;65687;51.308;16.916;2023-02-01T01:21:55;99123.98;;;2.04;85.05
76753;BME280;65687;51.308;16.916;2023-02-01T01:26:57;99119.73;;;2.03;84.80
76753;BME280;65687;51.308;16.916;2023-02-01T01:31:58;99127.85;;;2.05;84.89
76753;BME280;65687;51.308;16.916;2023-02-01T01:37:00;99130.23;;;2.03;84.64
76753;BME280;65687;51.308;16.916;2023-02-01T01:42:01;99138.23;;;1.99;84.64
76753;BME280;65687;51.308;16.916;2023-02-01T01:47:03;99136.34;;;1.97;84.28
76753;BME280;65687;51.308;16.916;2023-02-01T01:52:05;99142.41;;;1.99;84.30
76753;BME280;65687;51.308;16.916;2023-02-01T01:57:44;99141.06;;;2.03;83.93
76753;BME280;65687;51.308;16.916;2023-02-01T02:02:38;99138.70;;;2.07;83.55
76753;BME280;65687;51.308;16.916;2023-02-01T02:07:45;99140.05;;;2.09;83.62
76753;BME280;65687;51.308;16.916;2023-02-01T02:12:48;99127.93;;;2.07;84.00
76753;BME280;65687;51.308;16.916;2023-02-01T02:18:01;99127.28;;;2.09;84.20
76753;BME280;65687;51.308;16.916;2023-02-01T02:23:35;99122.05;;;2.12;84.19
76753;BME280;65687;51.308;16.916;2023-02-01T02:45:13;99126.26;;;2.07;84.34
76753;BME280;65687;51.308;16.916;2023-02-01T02:50:59;99125.58;;;2.07;84.00
76753;BME280;65687;51.308;16.916;2023-02-01T02:56:22;99124.59;;;2.05;83.67
76753;BME280;65687;51.308;16.916;2023-02-01T03:01:44;99125.50;;;2.04;83.96
76753;BME280;65687;51.308;16.916;2023-02-01T03:07:42;99127.13;;;2.08;83.37
76753;BME280;65687;51.308;16.916;2023-02-01T03:12:36;99131.73;;;2.20;82.95
76753;BME280;65687;51.308;16.916;2023-02-01T03:18:01;99127.23;;;2.31;82.45
76753;BME280;65687;51.308;16.916;2023-02-01T03:23:04;99128.75;;;2.34;82.09
76753;BME280;65687;51.308;16.916;2023-02-01T03:28:09;99127.83;;;2.33;81.91
76753;BME280;65687;51.308;16.916;2023-02-01T03:33:15;99132.23;;;2.36;81.50
76753;BME280;65687;51.308;16.916;2023-02-01T03:43:37;99130.55;;;2.44;81.22
76753;BME280;65687;51.308;16.916;2023-02-01T03:48:41;99127.55;;;2.43;81.04
76753;BME280;65687;51.308;16.916;2023-02-01T03:53:45;99115.49;;;2.41;81.09
76753;BME280;65687;51.308;16.916;2023-02-01T03:58:49;99111.88;;;2.40;80.85
76753;BME280;65687;51.308;16.916;2023-02-01T04:03:59;99109.61;;;2.40;80.35
76753;BME280;65687;51.308;16.916;2023-02-01T04:09:01;99107.77;;;2.38;80.43
76753;BME280;65687;51.308;16.916;2023-02-01T04:14:04;99103.73;;;2.32;80.51
76753;BME280;65687;51.308;16.916;2023-02-01T04:19:05;99101.27;;;2.30;80.23
76753;BME280;65687;51.308;16.916;2023-02-01T04:24:07;99092.75;;;2.30;80.13
76753;BME280;65687;51.308;16.916;2023-02-01T04:29:09;99091.63;;;2.28;80.16
76753;BME280;65687;51.308;16.916;2023-02-01T04:34:11;99096.20;;;2.26;80.33
76753;BME280;65687;51.308;16.916;2023-02-01T04:39:13;99099.35;;;2.29;80.18
76753;BME280;65687;51.308;16.916;2023-02-01T04:44:16;99104.85;;;2.35;80.33
76753;BME280;65687;51.308;16.916;2023-02-01T04:49:18;99105.92;;;2.40;79.67
76753;BME280;65687;51.308;16.916;2023-02-01T04:54:20;99104.46;;;2.40;80.05
76753;BME280;65687;51.308;16.916;2023-02-01T04:59:22;99101.80;;;2.46;79.82
76753;BME280;65687;51.308;16.916;2023-02-01T05:04:23;99102.23;;;2.53;79.41
76753;BME280;65687;51.308;16.916;2023-02-01T05:09:25;99099.48;;;2.56;79.35
76753;BME280;65687;51.308;16.916;2023-02-01T05:14:26;99104.11;;;2.58;79.25
76753;BME280;65687;51.308;16.916;2023-02-01T05:19:28;99098.11;;;2.58;79.34
76753;BME280;65687;51.308;16.916;2023-02-01T05:24:29;99097.66;;;2.61;79.24
76753;BME280;65687;51.308;16.916;2023-02-01T05:29:31;99093.54;;;2.65;78.58
76753;BME280;65687;51.308;16.916;2023-02-01T05:34:32;99082.44;;;2.66;78.41
76753;BME280;65687;51.308;16.916;2023-02-01T05:39:34;99070.02;;;2.62;78.37
76753;BME280;65687;51.308;16.916;2023-02-01T05:44:35;99067.11;;;2.60;78.27
76753;BME280;65687;51.308;16.916;2023-02-01T05:49:37;99057.89;;;2.59;78.28
76753;BME280;65687;51.308;16.916;2023-02-01T05:54:38;99053.77;;;2.60;78.49
76753;BME280;65687;51.308;16.916;2023-02-01T05:59:40;99056.16;;;2.61;78.59
76753;BME280;65687;51.308;16.916;2023-02-01T06:04:48;99052.39;;;2.61;78.22
76753;BME280;65687;51.308;16.916;2023-02-01T06:09:50;99045.48;;;2.60;78.09
76753;BME280;65687;51.308;16.916;2023-02-01T06:14:51;99044.05;;;2.65;77.84
76753;BME280;65687;51.308;16.916;2023-02-01T06:19:53;99047.16;;;2.70;77.64
76753;BME280;65687;51.308;16.916;2023-02-01T06:24:55;99048.02;;;2.75;77.60
76753;BME280;65687;51.308;16.916;2023-02-01T06:29:56;99050.05;;;2.76;77.69
76753;BME280;65687;51.308;16.916;2023-02-01T06:34:58;99057.73;;;2.79;77.32
76753;BME280;65687;51.308;16.916;2023-02-01T06:40:00;99061.20;;;2.87;77.62
76753;BME280;65687;51.308;16.916;2023-02-01T06:45:02;99064.91;;;2.94;77.17
76753;BME280;65687;51.308;16.916;2023-02-01T06:50:04;99067.42;;;2.96;76.80
76753;BME280;65687;51.308;16.916;2023-02-01T06:55:06;99067.16;;;2.95;77.05
76753;BME280;65687;51.308;16.916;2023-02-01T07:00:08;99071.30;;;2.97;77.07
76753;BME280;65687;51.308;16.916;2023-02-01T07:05:10;99073.57;;;2.99;77.01
76753;BME280;65687;51.308;16.916;2023-02-01T07:10:11;99076.60;;;3.02;77.04
76753;BME280;65687;51.308;16.916;2023-02-01T07:15:13;99080.83;;;3.03;76.67
76753;BME280;65687;51.308;16.916;2023-02-01T07:20:15;99074.27;;;3.06;76.92
76753;BME280;65687;51.308;16.916;2023-02-01T07:25:17;99072.67;;;3.11;77.01
76753;BME280;65687;51.308;16.916;2023-02-01T07:30:19;99073.08;;;3.14;77.07
76753;BME280;65687;51.308;16.916;2023-02-01T07:35:21;99071.92;;;3.15;76.89
76753;BME280;65687;51.308;16.916;2023-02-01T07:40:22;99067.17;;;3.15;77.00
76753;BME280;65687;51.308;16.916;2023-02-01T07:45:29;99069.32;;;3.19;76.91
76753;BME280;65687;51.308;16.916;2023-02-01T07:50:31;99064.02;;;3.26;76.68
76753;BME280;65687;51.308;16.916;2023-02-01T07:55:32;99064.15;;;3.29;76.87
76753;BME280;65687;51.308;16.916;2023-02-01T08:00:36;99058.30;;;3.29;76.89
76753;BME280;65687;51.308;16.916;2023-02-01T08:05:56;99058.98;;;3.29;77.14
76753;BME280;65687;51.308;16.916;2023-02-01T08:10:59;99061.17;;;3.32;77.23
76753;BME280;65687;51.308;16.916;2023-02-01T08:16:03;99055.36;;;3.32;77.37
76753;BME280;65687;51.308;16.916;2023-02-01T08:21:12;99044.55;;;3.30;77.60
76753;BME280;65687;51.308;16.916;2023-02-01T08:26:17;99039.29;;;3.29;78.09
76753;BME280;65687;51.308;16.916;2023-02-01T08:31:21;99036.15;;;3.34;77.90
76753;BME280;65687;51.308;16.916;2023-02-01T08:36:25;99034.98;;;3.38;78.02
76753;BME280;65687;51.308;16.916;2023-02-01T08:41:29;99036.38;;;3.37;78.10
76753;BME280;65687;51.308;16.916;2023-02-01T08:46:31;99036.30;;;3.36;78.36
76753;BME280;65687;51.308;16.916;2023-02-01T08:51:32;99040.25;;;3.37;78.17
76753;BME280;65687;51.308;16.916;2023-02-01T08:56:34;99040.25;;;3.43;78.17
76753;BME280;65687;51.308;16.916;2023-02-01T09:01:35;99043.33;;;3.46;78.51
76753;BME280;65687;51.308;16.916;2023-02-01T09:06:40;99034.11;;;3.40;79.44
76753;BME280;65687;51.308;16.916;2023-02-01T09:11:42;99037.46;;;3.34;79.68
76753;BME280;65687;51.308;16.916;2023-02-01T09:16:43;99030.23;;;3.31;80.16
76753;BME280;65687;51.308;16.916;2023-02-01T09:21:45;99025.30;;;3.32;80.72
76753;BME280;65687;51.308;16.916;2023-02-01T09:26:47;99016.73;;;3.33;80.89
76753;BME280;65687;51.308;16.916;2023-02-01T09:31:48;99014.94;;;3.38;81.29
76753;BME280;65687;51.308;16.916;2023-02-01T09:36:50;99018.02;;;3.47;80.65
76753;BME280;65687;51.308;16.916;2023-02-01T09:47:17;99004.38;;;3.55;79.80
76753;BME280;65687;51.308;16.916;2023-02-01T09:52:27;99002.63;;;3.55;79.68
76753;BME280;65687;51.308;16.916;2023-02-01T09:57:49;98996.45;;;3.60;79.33
76753;BME280;65687;51.308;16.916;2023-02-01T10:02:54;98987.62;;;3.60;79.25
76753;BME280;65687;51.308;16.916;2023-02-01T10:29:22;98959.07;;;3.58;79.22
76753;BME280;65687;51.308;16.916;2023-02-01T10:34:31;98958.66;;;3.57;79.17
76753;BME280;65687;51.308;16.916;2023-02-01T10:39:33;98957.75;;;3.56;79.15
76753;BME280;65687;51.308;16.916;2023-02-01T10:44:40;98948.42;;;3.58;79.44
76753;BME280;65687;51.308;16.916;2023-02-01T10:55:34;98935.44;;;3.67;78.82
76753;BME280;65687;51.308;16.916;2023-02-01T11:00:44;98932.50;;;3.64;79.42
76753;BME280;65687;51.308;16.916;2023-02-01T11:05:47;98931.34;;;3.66;80.28
76753;BME280;65687;51.308;16.916;2023-02-01T11:10:58;98929.98;;;3.64;80.62
76753;BME280;65687;51.308;16.916;2023-02-01T11:16:01;98922.02;;;3.56;81.04
76753;BME280;65687;51.308;16.916;2023-02-01T11:21:08;98922.16;;;3.49;81.65
76753;BME280;65687;51.308;16.916;2023-02-01T11:26:13;98915.55;;;3.47;82.10
76753;BME280;65687;51.308;16.916;2023-02-01T11:31:15;98903.73;;;3.48;82.31
76753;BME280;65687;51.308;16.916;2023-02-01T11:36:24;98900.05;;;3.46;82.39
76753;BME280;65687;51.308;16.916;2023-02-01T11:41:27;98895.04;;;3.44;82.81
76753;BME280;65687;51.308;16.916;2023-02-01T11:46:34;98897.91;;;3.37;82.71
76753;BME280;65687;51.308;16.916;2023-02-01T11:51:53;98892.13;;;3.34;83.03
76753;BME280;65687;51.308;16.916;2023-02-01T12:12:26;98889.36;;;3.12;84.33
76753;BME280;65687;51.308;16.916;2023-02-01T12:17:53;98888.41;;;3.14;84.54
76753;BME280;65687;51.308;16.916;2023-02-01T12:23:46;98889.71;;;3.14;84.66
76753;BME280;65687;51.308;16.916;2023-02-01T12:50:20;98914.41;;;3.12;85.08
76753;BME280;65687;51.308;16.916;2023-02-01T13:00:39;98921.21;;;3.09;85.34
76753;BME280;65687;51.308;16.916;2023-02-01T13:11:18;98922.39;;;3.26;85.39
76753;BME280;65687;51.308;16.916;2023-02-01T13:16:30;98924.66;;;3.26;85.02
76753;BME280;65687;51.308;16.916;2023-02-01T13:21:36;98924.38;;;3.24;85.06
76753;BME280;65687;51.308;16.916;2023-02-01T13:26:40;98929.25;;;3.24;85.21
76753;BME280;65687;51.308;16.916;2023-02-01T13:42:31;98930.73;;;3.35;84.75
76753;BME280;65687;51.308;16.916;2023-02-01T13:47:40;98932.79;;;3.33;84.90
76753;BME280;65687;51.308;16.916;2023-02-01T13:52:44;98937.31;;;3.36;84.85
76753;BME280;65687;51.308;16.916;2023-02-01T13:57:49;98945.52;;;3.36;84.85
76753;BME280;65687;51.308;16.916;2023-02-01T14:08:11;98940.01;;;3.51;84.63
76753;BME280;65687;51.308;16.916;2023-02-01T14:23:40;98955.98;;;3.39;83.82
76753;BME280;65687;51.308;16.916;2023-02-01T14:28:50;98950.66;;;3.34;84.39
76753;BME280;65687;51.308;16.916;2023-02-01T14:33:57;98946.98;;;3.31;84.37
76753;BME280;65687;51.308;16.916;2023-02-01T14:39:00;98940.52;;;3.30;84.75
76753;BME280;65687;51.308;16.916;2023-02-01T14:49:05;98941.63;;;3.27;84.84
76753;BME280;65687;51.308;16.916;2023-02-01T14:54:12;98938.91;;;3.24;84.68
76753;BME280;65687;51.308;16.916;2023-02-01T14:59:16;98942.02;;;3.28;84.84
76753;BME280;65687;51.308;16.916;2023-02-01T15:04:26;98939.70;;;3.32;84.52
76753;BME280;65687;51.308;16.916;2023-02-01T15:09:34;98935.39;;;3.32;84.30
76753;BME280;65687;51.308;16.916;2023-02-01T15:14:40;98937.58;;;3.28;84.29
76753;BME280;65687;51.308;16.916;2023-02-01T15:19:56;98950.48;;;3.29;84.49
76753;BME280;65687;51.308;16.916;2023-02-01T15:24:59;98951.41;;;3.32;84.20
76753;BME280;65687;51.308;16.916;2023-02-01T15:30:15;98954.05;;;3.32;84.13
76753;BME280;65687;51.308;16.916;2023-02-01T15:35:46;98952.08;;;3.28;83.91
76753;BME280;65687;51.308;16.916;2023-02-01T15:41:00;98952.95;;;3.27;83.51
76753;BME280;65687;51.308;16.916;2023-02-01T15:46:07;98955.28;;;3.29;83.45
76753;BME280;65687;51.308;16.916;2023-02-01T15:51:14;98960.35;;;3.31;83.26
76753;BME280;65687;51.308;16.916;2023-02-01T15:56:25;98952.81;;;3.31;83.41
76753;BME280;65687;51.308;16.916;2023-02-01T16:01:28;98947.85;;;3.30;83.16
76753;BME280;65687;51.308;16.916;2023-02-01T16:06:31;98952.30;;;3.31;82.69
76753;BME280;65687;51.308;16.916;2023-02-01T16:11:42;98955.95;;;3.33;82.45
76753;BME280;65687;51.308;16.916;2023-02-01T16:16:48;98951.80;;;3.31;82.47
76753;BME280;65687;51.308;16.916;2023-02-01T16:21:50;98951.29;;;3.27;82.43
76753;BME280;65687;51.308;16.916;2023-02-01T16:26:52;98941.04;;;3.24;82.32
76753;BME280;65687;51.308;16.916;2023-02-01T16:31:54;98939.52;;;3.23;82.03
76753;BME280;65687;51.308;16.916;2023-02-01T16:36:55;98937.06;;;3.20;81.88
76753;BME280;65687;51.308;16.916;2023-02-01T16:41:58;98937.51;;;3.15;82.07
76753;BME280;65687;51.308;16.916;2023-02-01T16:46:59;98931.77;;;3.08;82.35
76753;BME280;65687;51.308;16.916;2023-02-01T16:52:01;98923.81;;;3.02;82.37
76753;BME280;65687;51.308;16.916;2023-02-01T16:57:03;98919.57;;;3.01;82.37
76753;BME280;65687;51.308;16.916;2023-02-01T17:02:04;98911.27;;;3.00;82.79
76753;BME280;65687;51.308;16.916;2023-02-01T17:07:06;98903.63;;;2.96;82.51
76753;BME280;65687;51.308;16.916;2023-02-01T17:12:28;98902.24;;;2.89;82.34
76753;BME280;65687;51.308;16.916;2023-02-01T17:17:36;98896.31;;;2.84;82.80
76753;BME280;65687;51.308;16.916;2023-02-01T17:22:38;98887.08;;;2.81;82.71
76753;BME280;65687;51.308;16.916;2023-02-01T17:27:40;98877.14;;;2.78;82.98
76753;BME280;65687;51.308;16.916;2023-02-01T17:32:42;98871.67;;;2.72;83.03
76753;BME280;65687;51.308;16.916;2023-02-01T17:37:44;98870.05;;;2.63;83.01
76753;BME280;65687;51.308;16.916;2023-02-01T17:42:46;98874.86;;;2.59;83.30
76753;BME280;65687;51.308;16.916;2023-02-01T17:47:48;98873.38;;;2.59;83.13
76753;BME280;65687;51.308;16.916;2023-02-01T17:52:49;98864.23;;;2.62;83.05
76753;BME280;65687;51.308;16.916;2023-02-01T17:57:51;98869.45;;;2.62;83.08
76753;BME280;65687;51.308;16.916;2023-02-01T18:02:52;98864.68;;;2.61;82.99
76753;BME280;65687;51.308;16.916;2023-02-01T18:07:54;98857.21;;;2.64;83.28
76753;BME280;65687;51.308;16.916;2023-02-01T18:12:55;98858.30;;;2.71;83.40
76753;BME280;65687;51.308;16.916;2023-02-01T18:17:57;98847.34;;;2.72;83.66
76753;BME280;65687;51.308;16.916;2023-02-01T18:22:59;98833.18;;;2.67;84.01
76753;BME280;65687;51.308;16.916;2023-02-01T18:28:02;98824.02;;;2.63;84.43
76753;BME280;65687;51.308;16.916;2023-02-01T18:33:03;98815.70;;;2.61;84.80
76753;BME280;65687;51.308;16.916;2023-02-01T18:38:06;98811.27;;;2.62;84.64
76753;BME280;65687;51.308;16.916;2023-02-01T18:43:09;98789.89;;;2.64;85.03
76753;BME280;65687;51.308;16.916;2023-02-01T18:48:12;98782.39;;;2.64;85.07
76753;BME280;65687;51.308;16.916;2023-02-01T18:53:19;98766.64;;;2.61;85.22
76753;BME280;65687;51.308;16.916;2023-02-01T18:58:21;98760.19;;;2.59;85.21
76753;BME280;65687;51.308;16.916;2023-02-01T19:03:26;98756.56;;;2.58;85.51
76753;BME280;65687;51.308;16.916;2023-02-01T19:08:29;98750.44;;;2.59;85.68
76753;BME280;65687;51.308;16.916;2023-02-01T19:13:30;98748.46;;;2.61;85.63
76753;BME280;65687;51.308;16.916;2023-02-01T19:18:32;98744.70;;;2.64;85.43
76753;BME280;65687;51.308;16.916;2023-02-01T19:23:33;98739.23;;;2.62;85.83
76753;BME280;65687;51.308;16.916;2023-02-01T19:28:35;98738.29;;;2.59;85.76
76753;BME280;65687;51.308;16.916;2023-02-01T19:33:37;98730.16;;;2.61;86.02
76753;BME280;65687;51.308;16.916;2023-02-01T19:38:39;98720.05;;;2.66;85.98
76753;BME280;65687;51.308;16.916;2023-02-01T19:43:40;98720.23;;;2.68;85.68
76753;BME280;65687;51.308;16.916;2023-02-01T19:48:42;98714.90;;;2.68;85.55
76753;BME280;65687;51.308;16.916;2023-02-01T19:53:43;98713.00;;;2.67;85.62
76753;BME280;65687;51.308;16.916;2023-02-01T19:58:45;98721.80;;;2.67;85.52
76753;BME280;65687;51.308;16.916;2023-02-01T20:03:47;98734.89;;;2.66;85.19
76753;BME280;65687;51.308;16.916;2023-02-01T20:08:48;98743.39;;;2.57;85.04
76753;BME280;65687;51.308;16.916;2023-02-01T20:13:55;98744.18;;;2.40;84.75
76753;BME280;65687;51.308;16.916;2023-02-01T20:18:57;98748.70;;;2.22;85.06
76753;BME280;65687;51.308;16.916;2023-02-01T20:23:58;98747.50;;;2.11;85.36
76753;BME280;65687;51.308;16.916;2023-02-01T20:29:01;98754.98;;;2.07;85.44
76753;BME280;65687;51.308;16.916;2023-02-01T20:34:03;98760.29;;;2.02;85.49
76753;BME280;65687;51.308;16.916;2023-02-01T20:39:04;98771.84;;;1.99;85.75
76753;BME280;65687;51.308;16.916;2023-02-01T20:44:06;98774.90;;;1.96;85.96
76753;BME280;65687;51.308;16.916;2023-02-01T20:49:07;98784.92;;;1.93;86.37
76753;BME280;65687;51.308;16.916;2023-02-01T20:54:09;98790.73;;;1.93;86.19
76753;BME280;65687;51.308;16.916;2023-02-01T20:59:11;98799.27;;;1.98;86.66
76753;BME280;65687;51.308;16.916;2023-02-01T21:04:14;98801.03;;;2.04;86.03
76753;BME280;65687;51.308;16.916;2023-02-01T21:09:15;98812.52;;;2.06;86.32
76753;BME280;65687;51.308;16.916;2023-02-01T21:14:18;98814.48;;;2.05;86.62
76753;BME280;65687;51.308;16.916;2023-02-01T21:19:20;98825.39;;;2.08;86.57
76753;BME280;65687;51.308;16.916;2023-02-01T21:24:24;98833.42;;;2.11;86.37
76753;BME280;65687;51.308;16.916;2023-02-01T21:29:25;98843.89;;;2.08;86.85
76753;BME280;65687;51.308;16.916;2023-02-01T21:34:27;98857.23;;;2.04;86.70
76753;BME280;65687;51.308;16.916;2023-02-01T21:39:28;98855.96;;;2.05;86.62
76753;BME280;65687;51.308;16.916;2023-02-01T21:44:30;98861.46;;;2.07;86.41
76753;BME280;65687;51.308;16.916;2023-02-01T21:49:31;98872.45;;;2.03;86.47
76753;BME280;65687;51.308;16.916;2023-02-01T21:54:33;98882.11;;;1.97;86.52
76753;BME280;65687;51.308;16.916;2023-02-01T21:59:34;98884.10;;;1.95;86.61
76753;BME280;65687;51.308;16.916;2023-02-01T22:04:39;98885.41;;;1.95;86.53
76753;BME280;65687;51.308;16.916;2023-02-01T22:09:41;98890.63;;;1.98;86.53
76753;BME280;65687;51.308;16.916;2023-02-01T22:14:43;98896.83;;;1.98;86.70
76753;BME280;65687;51.308;16.916;2023-02-01T22:19:46;98903.34;;;1.94;86.62
76753;BME280;65687;51.308;16.916;2023-02-01T22:24:48;98909.77;;;1.93;86.69
76753;BME280;65687;51.308;16.916;2023-02-01T22:29:49;98906.81;;;1.93;86.62
76753;BME280;65687;51.308;16.916;2023-02-01T22:34:51;98907.20;;;1.97;86.81
76753;BME280;65687;51.308;16.916;2023-02-01T22:39:52;98906.63;;;1.96;86.83
76753;BME280;65687;51.308;16.916;2023-02-01T22:44:57;98908.95;;;2.00;87.20
76753;BME280;65687;51.308;16.916;2023-02-01T22:49:59;98911.20;;;2.05;87.15
76753;BME280;65687;51.308;16.916;2023-02-01T22:55:02;98914.90;;;2.07;87.12
76753;BME280;65687;51.308;16.916;2023-02-01T23:00:05;98910.54;;;2.05;87.34
76753;BME280;65687;51.308;16.916;2023-02-01T23:05:08;98908.30;;;2.02;87.46
76753;BME280;65687;51.308;16.916;2023-02-01T23:10:10;98911.59;;;2.04;87.39
76753;BME280;65687;51.308;16.916;2023-02-01T23:15:13;98912.44;;;2.10;87.35
76753;BME280;65687;51.308;16.916;2023-02-01T23:20:17;98917.38;;;2.17;87.35
76753;BME280;65687;51.308;16.916;2023-02-01T23:25:19;98912.02;;;2.24;87.11
76753;BME280;65687;51.308;16.916;2023-02-01T23:30:20;98915.75;;;2.27;86.90
76753;BME280;65687;51.308;16.916;2023-02-01T23:35:22;98910.05;;;2.27;86.84
76753;BME280;65687;51.308;16.916;2023-02-01T23:40:24;98910.75;;;2.27;86.59
76753;BME280;65687;51.308;16.916;2023-02-01T23:45:26;98907.89;;;2.31;86.74
76753;BME280;65687;51.308;16.916;2023-02-01T23:50:28;98913.33;;;2.34;86.38
76753;BME280;65687;51.308;16.916;2023-02-01T23:55:29;98911.77;;;2.40;86.43
